Time;durP1;ratioP1;P1;durP2;ratioP2;P2;SDS_P1;SDS_P2;PMS_P1;PMS_P2;Temp;Humidity;BMP_temperature;BMP_pressure;BME280_temperature;BME280_humidity;BME280_pressure;Samples;Min_cycle;Max_cycle;Signal;HPM_P1;HPM_P2
2022/03/16 00:00:00;;;;;;;45.72;32.00;;;6.70;99.90;;;;;;5069550;28;20028;-80
2022/03/16 00:02:26;;;;;;;48.55;33.22;;;6.70;99.90;;;;;;5052784;28;20043;-79
2022/03/16 00:04:55;;;;;;;46.47;31.10;;;6.50;99.90;;;;;;5069683;28;20448;-80
2022/03/16 00:07:23;;;;;;;45.45;31.85;;;6.30;99.90;;;;;;5069993;28;20135;-78
2022/03/16 00:09:49;;;;;;;49.15;32.35;;;6.40;99.90;;;;;;5069298;28;20125;-80
2022/03/16 00:12:18;;;;;;;41.60;30.23;;;6.70;99.90;;;;;;5071436;28;20049;-79
2022/03/16 00:14:44;;;;;;;47.88;33.05;;;8.60;99.90;;;;;;5052097;28;20549;-78
2022/03/16 00:17:10;;;;;;;44.22;30.38;;;8.10;99.90;;;;;;5052783;28;20052;-78
2022/03/16 00:19:37;;;;;;;43.88;32.40;;;6.50;99.90;;;;;;5069909;28;20039;-79
2022/03/16 00:22:04;;;;;;;45.78;30.52;;;6.70;99.90;;;;;;5043901;28;20549;-78
2022/03/16 00:24:34;;;;;;;41.47;32.08;;;6.80;99.90;;;;;;5071307;28;20105;-77
2022/03/16 00:27:00;;;;;;;50.65;31.48;;;6.50;99.90;;;;;;5069421;28;20033;-78
2022/03/16 00:29:31;;;;;;;46.58;30.77;;;6.70;99.90;;;;;;5052935;28;20048;-79
2022/03/16 00:32:00;;;;;;;48.80;30.67;;;6.70;99.90;;;;;;5052132;28;20048;-77
2022/03/16 00:34:30;;;;;;;49.45;31.77;;;6.20;99.90;;;;;;5069670;28;20167;-77
2022/03/16 00:36:55;;;;;;;51.55;31.52;;;6.60;99.90;;;;;;5051967;28;20045;-78
2022/03/16 00:39:21;;;;;;;45.53;31.80;;;8.30;99.90;;;;;;5069381;28;20087;-78
2022/03/16 00:41:46;;;;;;;50.33;32.63;;;6.80;99.90;;;;;;5052541;28;20048;-77
2022/03/16 00:44:12;;;;;;;52.63;33.58;;;6.00;99.90;;;;;;5068416;28;20098;-76
2022/03/16 00:46:41;;;;;;;50.40;33.22;;;6.40;99.90;;;;;;5069797;28;20115;-78
2022/03/16 00:49:11;;;;;;;52.13;33.97;;;6.40;99.90;;;;;;5070408;28;20115;-83
2022/03/16 00:51:39;;;;;;;48.65;33.15;;;6.40;99.90;;;;;;5068603;28;20417;-78
2022/03/16 00:54:05;;;;;;;47.55;31.42;;;6.30;99.90;;;;;;5051778;28;20076;-79
2022/03/16 00:56:31;;;;;;;48.70;33.08;;;5.70;99.90;;;;;;5052573;28;20082;-77
2022/03/16 00:59:00;;;;;;;47.35;32.50;;;6.30;99.90;;;;;;5068206;28;20060;-77
2022/03/16 01:01:29;;;;;;;50.13;32.80;;;6.00;99.90;;;;;;5069480;28;20041;-77
2022/03/16 01:03:56;;;;;;;48.38;33.35;;;5.90;99.90;;;;;;5051058;28;20045;-77
2022/03/16 01:06:23;;;;;;;45.38;31.52;;;5.90;99.90;;;;;;5052394;28;20124;-78
2022/03/16 01:08:49;;;;;;;46.38;31.38;;;6.40;99.90;;;;;;5052040;28;20393;-78
2022/03/16 01:11:15;;;;;;;46.80;30.70;;;6.30;99.90;;;;;;5068052;28;20477;-78
2022/03/16 01:13:42;;;;;;;41.92;29.88;;;6.10;99.90;;;;;;5068405;28;20059;-77
2022/03/16 01:16:08;;;;;;;45.90;30.67;;;8.00;99.90;;;;;;5015338;28;20040;-78
2022/03/16 01:18:34;;;;;;;41.90;29.15;;;6.30;99.90;;;;;;5030821;28;20045;-78
2022/03/16 01:21:09;;;;;;;41.90;28.92;;;8.00;99.90;;;;;;5067503;28;20086;-78
2022/03/16 01:23:36;;;;;;;45.78;30.30;;;7.70;99.90;;;;;;5051627;28;20041;-79
2022/03/16 01:26:05;;;;;;;42.10;29.67;;;6.50;99.90;;;;;;5066535;28;20044;-78
2022/03/16 01:28:32;;;;;;;42.22;29.75;;;6.40;99.90;;;;;;5069754;28;20070;-77
2022/03/16 01:30:59;;;;;;;42.58;29.02;;;6.10;99.90;;;;;;5068551;28;20041;-77
2022/03/16 01:33:27;;;;;;;41.30;28.98;;;6.10;99.90;;;;;;5051190;28;20048;-78
2022/03/16 01:35:57;;;;;;;48.88;31.05;;;6.30;99.90;;;;;;5070195;28;20048;-79
2022/03/16 01:38:23;;;;;;;45.17;31.30;;;6.30;99.90;;;;;;5052575;28;20127;-77
2022/03/16 01:40:52;;;;;;;40.83;29.88;;;5.70;99.90;;;;;;5051496;28;20393;-77
2022/03/16 01:43:18;;;;;;;43.42;31.13;;;6.20;99.90;;;;;;5068856;28;20469;-77
2022/03/16 01:45:48;;;;;;;40.03;29.83;;;6.20;99.90;;;;;;5051004;28;20131;-77
2022/03/16 01:48:15;;;;;;;42.17;28.95;;;6.00;99.90;;;;;;5068914;28;20111;-77
2022/03/16 01:50:42;;;;;;;43.10;31.10;;;6.30;99.90;;;;;;5051752;28;20051;-77
2022/03/16 01:53:13;;;;;;;49.03;31.60;;;6.20;99.90;;;;;;5059432;28;20175;-78
2022/03/16 01:55:44;;;;;;;47.60;32.03;;;7.80;99.90;;;;;;5067913;28;20500;-79
2022/03/16 01:58:10;;;;;;;55.58;35.03;;;5.70;99.90;;;;;;5061384;28;20045;-77
2022/03/16 02:00:42;;;;;;;51.10;31.48;;;5.40;99.90;;;;;;5051293;28;20120;-78
2022/03/16 02:03:08;;;;;;;45.05;32.65;;;5.90;99.90;;;;;;5059120;28;20175;-78
2022/03/16 02:05:38;;;;;;;47.38;30.35;;;6.30;99.90;;;;;;5051821;28;20449;-76
2022/03/16 02:08:08;;;;;;;42.72;30.17;;;5.90;99.90;;;;;;5050256;28;20119;-77
2022/03/16 02:10:34;;;;;;;45.35;30.20;;;5.80;99.90;;;;;;5050726;28;20085;-78
2022/03/16 02:13:00;;;;;;;41.08;29.40;;;7.00;99.90;;;;;;5066737;28;20044;-78
2022/03/16 02:15:26;;;;;;;41.00;30.27;;;7.40;99.90;;;;;;5068443;28;20384;-79
2022/03/16 02:17:54;;;;;;;40.42;30.50;;;5.30;99.90;;;;;;5066701;28;20049;-78
2022/03/16 02:20:23;;;;;;;43.08;29.45;;;7.00;99.90;;;;;;5067655;28;20036;-77
2022/03/16 02:23:09;;;;;;;45.30;29.70;;;5.40;99.90;;;;;;5044582;28;20080;-78
2022/03/16 02:25:52;;;;;;;40.35;28.30;;;5.40;99.90;;;;;;5067304;28;20048;-78
2022/03/16 02:28:18;;;;;;;47.08;29.50;;;6.80;99.90;;;;;;5059814;28;20358;-78
2022/03/16 02:30:44;;;;;;;49.13;33.05;;;7.50;99.90;;;;;;5048912;28;20135;-76
2022/03/16 02:33:12;;;;;;;49.28;33.17;;;5.20;99.90;;;;;;5050188;28;20124;-78
2022/03/16 02:35:41;;;;;;;46.83;29.60;;;5.70;99.90;;;;;;5067169;28;20463;-78
2022/03/16 02:38:06;;;;;;;43.17;31.08;;;5.70;99.90;;;;;;5033693;28;20527;-78
2022/03/16 02:40:32;;;;;;;46.35;31.10;;;6.00;99.90;;;;;;5067607;28;20121;-76
2022/03/16 02:42:58;;;;;;;42.67;29.40;;;5.10;99.90;;;;;;5066910;28;20040;-77
2022/03/16 02:45:26;;;;;;;42.95;29.30;;;5.60;99.90;;;;;;5067706;28;20052;-77
2022/03/16 02:47:52;;;;;;;41.83;27.88;;;6.70;99.90;;;;;;5066826;28;20070;-77
2022/03/16 02:50:19;;;;;;;44.83;28.80;;;7.10;99.90;;;;;;5049706;28;20052;-77
2022/03/16 02:52:48;;;;;;;42.85;28.67;;;7.40;99.90;;;;;;5067022;28;20079;-77
2022/03/16 02:55:15;;;;;;;43.08;28.23;;;5.00;99.90;;;;;;5068056;28;20452;-77
2022/03/16 02:57:42;;;;;;;47.05;29.08;;;5.40;99.90;;;;;;5066399;28;20055;-77
2022/03/16 03:00:09;;;;;;;40.67;27.77;;;5.40;99.90;;;;;;5066652;28;20048;-77
2022/03/16 03:02:38;;;;;;;40.15;28.42;;;5.50;99.90;;;;;;5066540;28;20118;-77
2022/03/16 03:05:04;;;;;;;38.72;27.55;;;3.80;99.90;;;;;;5064937;28;20499;-77
2022/03/16 03:07:30;;;;;;;39.28;27.95;;;5.40;99.90;;;;;;5067116;28;20036;-77
2022/03/16 03:09:55;;;;;;;36.33;26.42;;;5.50;99.90;;;;;;5067867;28;20552;-77
2022/03/16 03:12:21;;;;;;;39.53;26.45;;;5.40;99.90;;;;;;5049221;28;20049;-77
2022/03/16 03:14:48;;;;;;;39.45;27.80;;;5.00;99.90;;;;;;5049912;28;20047;-77
2022/03/16 03:17:15;;;;;;;36.30;26.25;;;4.90;99.90;;;;;;5066550;28;20075;-77
2022/03/16 03:19:43;;;;;;;42.35;29.08;;;4.90;99.90;;;;;;5049663;28;20037;-80
2022/03/16 03:22:10;;;;;;;35.17;26.02;;;5.20;99.90;;;;;;5049624;28;20404;-78
2022/03/16 03:24:35;;;;;;;42.75;28.83;;;5.20;99.90;;;;;;5067284;28;20036;-76
2022/03/16 03:27:02;;;;;;;38.88;28.42;;;5.20;99.90;;;;;;5032963;28;20094;-76
2022/03/16 03:29:28;;;;;;;41.20;28.45;;;5.30;99.90;;;;;;5068809;28;20434;-77
2022/03/16 03:31:56;;;;;;;40.75;27.13;;;6.70;99.90;;;;;;5070098;28;20512;-77
2022/03/16 03:34:25;;;;;;;42.30;29.13;;;4.90;99.90;;;;;;5038435;28;20044;-77
2022/03/16 03:36:53;;;;;;;39.65;27.17;;;7.20;99.90;;;;;;5070643;28;20144;-78
2022/03/16 03:39:20;;;;;;;45.85;30.38;;;4.90;99.90;;;;;;5069966;28;20536;-77
2022/03/16 03:41:45;;;;;;;43.85;28.90;;;7.10;99.90;;;;;;5070921;28;20060;-77
2022/03/16 03:44:14;;;;;;;41.97;28.60;;;6.70;99.90;;;;;;5046083;28;20127;-77
2022/03/16 03:46:40;;;;;;;40.50;27.33;;;4.50;99.90;;;;;;5069490;28;20143;-77
2022/03/16 03:49:05;;;;;;;43.15;29.05;;;4.40;99.90;;;;;;5070129;28;20051;-79
2022/03/16 03:51:31;;;;;;;48.13;30.83;;;4.60;99.90;;;;;;5070688;28;20409;-78
2022/03/16 03:53:57;;;;;;;53.75;32.25;;;4.30;99.90;;;;;;5035666;28;20135;-78
2022/03/16 03:56:23;;;;;;;39.65;27.65;;;4.60;99.90;;;;;;5071898;28;20044;-78
2022/03/16 03:58:51;;;;;;;75.82;27.48;;;4.70;99.90;;;;;;5070328;28;20040;-79
2022/03/16 04:01:17;;;;;;;39.22;25.85;;;3.30;99.90;;;;;;5062077;28;20488;-78
2022/03/16 04:03:43;;;;;;;44.00;28.15;;;4.60;99.90;;;;;;5053362;28;20088;-79
2022/03/16 04:06:10;;;;;;;36.40;26.17;;;6.70;99.90;;;;;;5054051;28;20404;-77
2022/03/16 04:08:35;;;;;;;42.70;26.20;;;4.60;99.90;;;;;;5053021;28;20043;-77
2022/03/16 04:11:01;;;;;;;34.80;25.05;;;4.60;99.90;;;;;;5069972;28;20037;-77
2022/03/16 04:13:27;;;;;;;36.67;25.23;;;4.00;99.90;;;;;;5069557;28;20116;-79
2022/03/16 04:15:52;;;;;;;34.63;24.35;;;4.50;99.90;;;;;;5052682;28;20052;-77
2022/03/16 04:18:18;;;;;;;47.38;24.08;;;4.20;99.90;;;;;;5069625;28;20047;-77
2022/03/16 04:20:44;;;;;;;36.88;22.27;;;6.80;99.90;;;;;;5053316;28;20457;-77
2022/03/16 04:23:09;;;;;;;33.83;22.85;;;3.00;99.90;;;;;;5051962;28;20044;-77
2022/03/16 04:25:35;;;;;;;30.58;22.73;;;4.20;99.90;;;;;;5069793;28;20163;-78
2022/03/16 04:28:04;;;;;;;31.90;23.98;;;6.30;99.90;;;;;;5068888;28;20546;-77
2022/03/16 04:30:29;;;;;;;29.50;21.35;;;5.50;99.90;;;;;;5069830;28;20131;-77
2022/03/16 04:32:55;;;;;;;28.90;21.80;;;6.70;99.90;;;;;;5052183;28;20053;-78
2022/03/16 04:35:21;;;;;;;34.88;23.83;;;4.70;99.90;;;;;;5052415;28;20036;-77
2022/03/16 04:37:47;;;;;;;36.92;25.33;;;6.20;99.90;;;;;;5069813;28;20049;-77
2022/03/16 04:40:13;;;;;;;35.92;25.15;;;6.40;99.90;;;;;;5069060;28;20489;-78
2022/03/16 04:42:39;;;;;;;33.22;23.80;;;4.00;99.90;;;;;;5051876;28;20355;-78
2022/03/16 04:45:08;;;;;;;29.10;22.52;;;5.70;99.90;;;;;;5069167;28;20040;-78
2022/03/16 04:47:34;;;;;;;35.35;23.42;;;4.90;99.90;;;;;;5053053;28;20067;-78
2022/03/16 04:50:00;;;;;;;37.55;24.60;;;4.20;99.90;;;;;;5069864;28;20041;-77
2022/03/16 04:52:25;;;;;;;41.20;25.58;;;6.80;99.90;;;;;;5052864;28;20502;-77
2022/03/16 04:54:51;;;;;;;36.17;24.10;;;4.30;99.90;;;;;;5052443;28;20086;-79
2022/03/16 04:57:17;;;;;;;37.10;24.63;;;4.50;99.90;;;;;;5069791;28;20050;-79
2022/03/16 04:59:42;;;;;;;34.95;24.17;;;4.40;99.90;;;;;;5070858;28;20045;-78
2022/03/16 05:02:08;;;;;;;30.88;21.92;;;3.80;99.90;;;;;;5068750;28;20128;-77
2022/03/16 05:04:34;;;;;;;31.05;21.95;;;5.40;99.90;;;;;;5051836;28;20086;-82
2022/03/16 05:06:59;;;;;;;30.02;21.30;;;4.60;99.90;;;;;;5068937;28;20094;-82
2022/03/16 05:09:25;;;;;;;29.33;21.92;;;4.70;99.90;;;;;;5069425;28;20028;-78
2022/03/16 05:11:51;;;;;;;28.40;21.08;;;4.60;99.90;;;;;;5069767;28;20044;-77
2022/03/16 05:14:17;;;;;;;26.83;21.27;;;4.10;99.90;;;;;;5068839;28;20090;-78
2022/03/16 05:16:43;;;;;;;28.63;21.08;;;6.30;99.90;;;;;;5052527;28;20127;-79
2022/03/16 05:19:08;;;;;;;28.55;20.45;;;4.50;99.90;;;;;;5067928;28;20496;-78
2022/03/16 05:21:34;;;;;;;24.95;20.23;;;7.10;99.90;;;;;;5052177;28;20037;-77
2022/03/16 05:24:00;;;;;;;32.97;23.90;;;4.40;99.90;;;;;;5068404;28;20048;-78
2022/03/16 05:26:26;;;;;;;31.33;23.75;;;6.10;99.90;;;;;;5068159;28;20093;-79
2022/03/16 05:28:53;;;;;;;30.70;22.45;;;4.40;99.90;;;;;;5068474;28;20500;-81
2022/03/16 05:31:20;;;;;;;30.33;22.88;;;6.10;99.90;;;;;;5051306;28;20043;-78
2022/03/16 05:33:46;;;;;;;36.83;24.58;;;5.90;99.90;;;;;;5051496;28;20492;-77
2022/03/16 05:36:12;;;;;;;34.83;24.33;;;4.30;99.90;;;;;;5068177;28;20117;-77
2022/03/16 05:38:39;;;;;;;36.75;24.17;;;4.20;99.90;;;;;;5051136;28;20126;-78
2022/03/16 05:41:05;;;;;;;33.88;23.50;;;6.10;99.90;;;;;;5051860;28;20494;-77
2022/03/16 05:43:34;;;;;;;27.13;20.67;;;4.00;99.90;;;;;;5068448;28;20067;-77
2022/03/16 05:46:01;;;;;;;28.48;21.63;;;6.20;99.90;;;;;;5050968;28;20457;-77
2022/03/16 05:48:27;;;;;;;34.20;23.42;;;3.40;99.90;;;;;;5068386;28;20537;-77
2022/03/16 05:50:52;;;;;;;29.70;22.38;;;3.90;99.90;;;;;;5069565;28;20119;-77
2022/03/16 05:53:18;;;;;;;31.85;22.55;;;3.90;99.90;;;;;;5066211;28;20133;-77
2022/03/16 05:55:44;;;;;;;28.63;22.42;;;3.90;99.90;;;;;;5051438;28;20453;-77
2022/03/16 05:58:10;;;;;;;33.90;25.08;;;3.50;99.90;;;;;;5051213;28;20117;-78
2022/03/16 06:00:37;;;;;;;33.03;23.92;;;3.80;99.90;;;;;;5068271;28;20174;-78
2022/03/16 06:03:03;;;;;;;28.10;21.25;;;5.50;99.90;;;;;;5050533;28;20048;-78
2022/03/16 06:05:30;;;;;;;33.90;23.35;;;3.30;99.90;;;;;;5068307;28;20109;-77
2022/03/16 06:07:56;;;;;;;33.33;23.50;;;;;;;;;;5067729;28;20037;-78
2022/03/16 06:10:22;;;;;;;33.88;25.08;;;3.90;99.90;;;;;;5051647;28;20047;-78
2022/03/16 06:12:59;;;;;;;36.58;25.35;;;3.90;99.90;;;;;;5034393;28;20404;-78
2022/03/16 06:15:26;;;;;;;32.08;23.00;;;6.00;99.90;;;;;;5060739;28;20044;-79
2022/03/16 06:17:58;;;;;;;34.28;23.80;;;3.20;99.90;;;;;;5067697;28;20131;-81
2022/03/16 06:20:25;;;;;;;30.52;23.27;;;4.10;99.90;;;;;;5042790;28;20534;-77
2022/03/16 06:22:50;;;;;;;29.92;21.80;;;3.80;99.90;;;;;;5068709;28;20476;-78
2022/03/16 06:25:16;;;;;;;29.88;22.45;;;4.00;99.90;;;;;;5068807;28;20064;-77
2022/03/16 06:27:42;;;;;;;29.40;22.45;;;4.00;99.90;;;;;;5066966;28;20045;-77
2022/03/16 06:30:09;;;;;;;28.52;21.45;;;4.10;99.90;;;;;;5034042;28;20044;-78
2022/03/16 06:32:35;;;;;;;38.55;28.42;;;4.50;99.90;;;;;;5050318;28;20052;-77
2022/03/16 06:35:01;;;;;;;36.42;26.83;;;6.60;99.90;;;;;;5066312;28;20151;-77
2022/03/16 06:37:27;;;;;;;29.33;23.40;;;4.50;99.90;;;;;;5068958;28;20488;-77
2022/03/16 06:39:53;;;;;;;23.08;19.42;;;4.50;99.90;;;;;;5050109;28;20078;-77
2022/03/16 06:42:19;;;;;;;25.15;20.23;;;4.00;99.90;;;;;;5033059;28;20051;-77
2022/03/16 06:44:45;;;;;;;24.10;19.25;;;6.30;99.90;;;;;;5068265;28;20392;-76
2022/03/16 06:47:10;;;;;;;24.77;20.23;;;4.10;99.90;;;;;;5066685;28;20052;-77
2022/03/16 06:49:36;;;;;;;23.92;19.67;;;4.50;99.90;;;;;;5033657;28;20048;-78
2022/03/16 06:52:02;;;;;;;25.00;19.65;;;4.30;99.90;;;;;;5067806;28;20049;-78
2022/03/16 06:54:28;;;;;;;28.73;20.48;;;4.60;99.90;;;;;;5050745;28;20040;-78
2022/03/16 06:56:54;;;;;;;27.85;21.63;;;4.10;99.90;;;;;;5066389;28;20055;-78
2022/03/16 06:59:20;;;;;;;25.05;20.02;;;4.50;99.90;;;;;;5050117;28;20036;-77
2022/03/16 07:01:45;;;;;;;31.13;21.55;;;3.90;99.90;;;;;;5068024;28;20052;-77
2022/03/16 07:04:11;;;;;;;26.50;20.23;;;6.20;99.90;;;;;;5049309;28;20538;-77
2022/03/16 07:06:37;;;;;;;28.83;21.63;;;4.50;99.90;;;;;;5067342;28;20036;-78
2022/03/16 07:09:02;;;;;;;32.60;23.67;;;4.60;99.90;;;;;;5066540;28;20551;-81
2022/03/16 07:11:29;;;;;;;29.60;23.02;;;4.20;99.90;;;;;;5058294;28;20146;-77
2022/03/16 07:16:42;;;;;;;33.78;24.92;;;4.00;99.90;;;;;;5060906;28;20052;-78
2022/03/16 07:19:08;;;;;;;31.30;24.25;;;4.20;99.90;;;;;;5066452;28;20139;-78
2022/03/16 07:21:34;;;;;;;32.10;24.13;;;4.00;99.90;;;;;;5066537;28;20043;-77
2022/03/16 07:24:00;;;;;;;39.00;27.23;;;5.80;99.90;;;;;;5048373;28;20044;-77
2022/03/16 07:26:27;;;;;;;34.33;25.35;;;4.20;99.90;;;;;;5066322;28;20048;-77
2022/03/16 07:28:56;;;;;;;30.35;24.30;;;4.60;99.90;;;;;;5067662;28;20480;-77
2022/03/16 07:31:24;;;;;;;32.33;23.75;;;4.30;99.90;;;;;;5048751;28;20055;-77
2022/03/16 07:33:50;;;;;;;40.72;31.00;;;4.20;99.90;;;;;;5065859;28;20044;-78
2022/03/16 07:36:16;;;;;;;50.78;36.40;;;4.50;99.90;;;;;;5048807;28;20052;-80
2022/03/16 07:38:43;;;;;;;34.15;26.15;;;4.10;99.90;;;;;;5048804;28;20051;-78
2022/03/16 07:41:08;;;;;;;36.10;25.30;;;4.30;99.90;;;;;;5065614;28;20059;-77
2022/03/16 07:43:34;;;;;;;40.72;26.30;;;4.80;99.90;;;;;;5032469;28;20622;-78
2022/03/16 07:46:00;;;;;;;39.60;27.30;;;4.90;99.90;;;;;;5064867;28;20086;-79
2022/03/16 07:48:26;;;;;;;39.58;28.15;;;6.20;99.90;;;;;;5065059;28;20060;-79
2022/03/16 07:50:52;;;;;;;45.55;32.60;;;5.00;99.90;;;;;;5066148;28;20045;-77
2022/03/16 07:53:20;;;;;;;37.60;28.08;;;4.10;99.90;;;;;;5065816;28;20476;-81
2022/03/16 07:55:47;;;;;;;39.83;27.33;;;4.70;99.90;;;;;;5049186;28;20177;-78
2022/03/16 07:58:13;;;;;;;40.60;29.15;;;5.10;99.90;;;;;;5032509;28;20484;-77
2022/03/16 08:00:40;;;;;;;37.15;27.20;;;4.70;99.90;;;;;;5066907;28;20037;-79
2022/03/16 08:03:06;;;;;;;36.15;26.60;;;4.90;99.90;;;;;;5031974;28;20059;-81
2022/03/16 08:05:32;;;;;;;37.95;26.52;;;6.80;99.90;;;;;;5065847;28;20491;-78
2022/03/16 08:07:58;;;;;;;37.25;25.17;;;5.30;99.90;;;;;;5048276;28;20051;-78
2022/03/16 08:10:27;;;;;;;43.58;27.17;;;6.90;99.90;;;;;;5049580;28;20047;-78
2022/03/16 08:12:56;;;;;;;32.38;24.05;;;5.40;99.90;;;;;;5048456;28;20118;-79
2022/03/16 08:15:23;;;;;;;34.78;25.27;;;5.50;99.90;;;;;;5048769;28;20071;-78
2022/03/16 08:17:50;;;;;;;37.33;26.63;;;5.70;99.90;;;;;;5019932;28;20040;-78
2022/03/16 08:20:17;;;;;;;38.10;26.48;;;5.20;99.90;;;;;;5052050;28;20044;-78
2022/03/16 08:22:42;;;;;;;37.45;25.92;;;5.80;99.90;;;;;;5069110;28;20483;-78
2022/03/16 08:25:10;;;;;;;35.47;26.73;;;5.30;99.90;;;;;;5052112;28;20046;-78
2022/03/16 08:27:37;;;;;;;34.55;26.58;;;6.00;99.90;;;;;;5035750;28;20121;-78
2022/03/16 08:30:06;;;;;;;40.67;27.45;;;5.50;99.90;;;;;;5068621;28;20048;-78
2022/03/16 08:32:35;;;;;;;39.50;28.27;;;6.20;99.90;;;;;;5035747;28;20055;-82
2022/03/16 08:35:01;;;;;;;35.30;26.08;;;6.20;99.90;;;;;;5051649;28;20041;-78
2022/03/16 08:37:27;;;;;;;33.15;25.60;;;8.00;99.90;;;;;;5035850;28;20606;-78
2022/03/16 08:39:55;;;;;;;36.17;25.73;;;7.60;99.90;;;;;;5069406;28;20040;-79
2022/03/16 08:42:21;;;;;;;30.55;23.65;;;6.60;99.90;;;;;;5050449;28;20041;-79
2022/03/16 08:44:46;;;;;;;35.63;24.92;;;6.70;99.90;;;;;;5069231;28;20071;-81
2022/03/16 08:47:16;;;;;;;32.40;23.52;;;6.90;99.90;;;;;;5068167;28;20063;-80
2022/03/16 08:49:43;;;;;;;32.92;23.95;;;6.90;99.90;;;;;;5066283;28;20064;-83
2022/03/16 08:52:10;;;;;;;34.67;23.92;;;7.00;99.90;;;;;;5066006;28;20037;-79
2022/03/16 08:54:36;;;;;;;32.20;23.58;;;7.20;99.90;;;;;;5069946;28;20036;-79
2022/03/16 08:57:02;;;;;;;29.75;22.23;;;7.00;99.90;;;;;;5067741;28;20480;-78
2022/03/16 08:59:28;;;;;;;33.75;22.95;;;7.50;99.90;;;;;;5051744;28;20567;-79
2022/03/16 09:01:54;;;;;;;29.58;23.17;;;7.60;99.90;;;;;;5069666;28;20156;-79
2022/03/16 09:04:21;;;;;;;33.22;24.95;;;7.40;99.90;;;;;;5067844;28;20045;-79
2022/03/16 09:06:48;;;;;;;31.13;23.77;;;7.40;99.90;;;;;;5031973;28;20049;-79
2022/03/16 09:09:14;;;;;;;39.63;26.40;;;7.40;99.90;;;;;;5065043;28;20067;-81
2022/03/16 09:11:40;;;;;;;36.50;25.63;;;9.90;99.90;;;;;;5068514;28;20369;-79
2022/03/16 09:14:06;;;;;;;35.47;24.90;;;8.20;99.90;;;;;;5034431;28;20114;-78
2022/03/16 09:16:32;;;;;;;35.47;25.45;;;8.30;99.90;;;;;;5067850;28;20351;-79
2022/03/16 09:18:57;;;;;;;37.28;25.60;;;9.60;99.90;;;;;;5051073;28;20127;-79
2022/03/16 09:21:25;;;;;;;35.47;25.80;;;9.70;99.90;;;;;;5069669;28;20132;-79
2022/03/16 09:23:52;;;;;;;36.20;26.50;;;8.30;99.90;;;;;;5050476;28;20113;-79
2022/03/16 09:26:19;;;;;;;36.65;25.95;;;8.60;99.90;;;;;;5069650;28;20062;-79
2022/03/16 09:28:44;;;;;;;37.00;26.42;;;8.50;99.90;;;;;;5059711;28;20048;-80
2022/03/16 09:31:11;;;;;;;39.42;25.75;;;9.40;99.90;;;;;;5067066;28;20055;-79
2022/03/16 09:33:36;;;;;;;34.70;24.50;;;8.80;99.90;;;;;;5067823;28;20048;-79
2022/03/16 09:36:08;;;;;;;33.72;24.50;;;8.30;99.90;;;;;;5050860;28;20056;-80
2022/03/16 09:38:34;;;;;;;32.22;21.88;;;9.10;99.90;;;;;;5068924;28;20146;-80
2022/03/16 09:41:01;;;;;;;31.77;22.25;;;8.80;99.90;;;;;;5050985;28;20067;-79
2022/03/16 09:43:28;;;;;;;30.48;22.80;;;9.30;99.90;;;;;;5067939;28;20048;-79
2022/03/16 09:45:56;;;;;;;35.13;21.80;;;9.40;99.90;;;;;;5066959;28;20085;-80
2022/03/16 09:48:23;;;;;;;27.95;20.00;;;9.10;99.90;;;;;;5069396;28;20041;-82
2022/03/16 09:50:54;;;;;;;27.05;19.52;;;9.70;99.90;;;;;;5069006;28;20071;-82
2022/03/16 09:53:22;;;;;;;24.77;18.65;;;9.80;99.90;;;;;;5068069;28;20045;-79
2022/03/16 09:55:49;;;;;;;28.65;19.50;;;9.90;99.90;;;;;;5059620;28;20546;-79
2022/03/16 09:58:14;;;;;;;25.15;18.85;;;10.00;99.90;;;;;;5069031;28;20060;-79
2022/03/16 10:00:40;;;;;;;24.02;17.80;;;10.00;99.90;;;;;;5066929;28;20044;-80
2022/03/16 10:03:05;;;;;;;21.67;16.02;;;10.10;99.90;;;;;;5049910;28;20477;-81
2022/03/16 10:05:32;;;;;;;24.08;15.38;;;10.10;99.90;;;;;;5067050;28;20105;-80
2022/03/16 10:08:02;;;;;;;17.38;14.43;;;10.10;99.90;;;;;;5068305;28;20083;-78
2022/03/16 10:13:24;;;;;;;20.58;14.57;;;10.30;99.90;;;;;;5066778;28;20523;-79
2022/03/16 10:16:08;;;;;;;20.92;13.90;;;10.30;99.90;;;;;;5060575;28;20082;-79
2022/03/16 10:18:36;;;;;;;24.13;14.93;;;10.30;99.90;;;;;;5068506;28;20483;-79
2022/03/16 10:21:02;;;;;;;17.95;13.20;;;10.50;99.90;;;;;;5065806;28;20082;-81
2022/03/16 10:23:30;;;;;;;18.75;14.00;;;11.90;99.90;;;;;;5068129;28;20488;-79
2022/03/16 10:26:00;;;;;;;17.73;13.70;;;10.60;99.90;;;;;;5066995;28;20093;-79
2022/03/16 10:28:28;;;;;;;17.52;12.85;;;10.70;99.90;;;;;;5067740;28;20040;-79
2022/03/16 10:31:05;;;;;;;21.25;13.70;;;10.70;99.90;;;;;;5050050;28;20055;-79
2022/03/16 10:33:35;;;;;;;16.95;12.27;;;10.80;99.90;;;;;;5068351;28;20706;-80
2022/03/16 10:36:12;;;;;;;19.27;11.85;;;10.90;99.90;;;;;;5066685;28;20051;-79
2022/03/16 10:38:42;;;;;;;15.90;10.95;;;10.90;99.90;;;;;;5067810;28;20044;-79
2022/03/16 10:41:12;;;;;;;19.13;11.60;;;11.00;99.90;;;;;;5048827;28;20119;-80
2022/03/16 10:46:34;;;;;;;12.65;9.88;;;11.10;99.90;;;;;;5066687;28;20048;-80
2022/03/16 10:49:04;;;;;;;14.98;9.82;;;11.20;99.90;;;;;;5092273;28;20036;-80
2022/03/16 10:51:30;;;;;;;14.85;10.27;;;11.20;99.90;;;;;;5050035;28;20106;-79
2022/03/16 10:53:58;;;;;;;11.18;9.98;;;11.30;99.90;;;;;;5067879;28;20032;-80
2022/03/16 10:56:25;;;;;;;12.25;10.13;;;11.30;99.90;;;;;;5067856;28;20040;-80
2022/03/16 10:58:52;;;;;;;14.75;10.35;;;11.40;99.90;;;;;;5066342;28;20351;-80
2022/03/16 11:01:19;;;;;;;14.02;10.75;;;11.30;99.90;;;;;;5066512;28;20130;-79
2022/03/16 11:03:47;;;;;;;12.95;10.63;;;11.60;99.90;;;;;;5065574;28;20057;-79
2022/03/16 11:06:14;;;;;;;11.75;10.23;;;11.70;99.90;;;;;;5063966;28;20044;-80
2022/03/16 11:08:41;;;;;;;15.82;11.00;;;11.80;99.90;;;;;;5067807;28;20033;-79
2022/03/16 11:13:28;;;;;;;14.50;10.48;;;11.80;99.90;;;;;;5048390;28;20036;-81
2022/03/16 11:13:54;;;;;;;13.98;11.13;;;11.90;99.90;;;;;;5066005;28;20090;-79
2022/03/16 11:16:21;;;;;;;14.75;11.13;;;12.00;99.90;;;;;;5065728;28;20044;-80
2022/03/16 11:18:51;;;;;;;15.82;10.20;;;12.10;99.90;;;;;;5066109;28;20044;-80
2022/03/16 11:21:23;;;;;;;12.55;10.13;;;12.20;99.90;;;;;;5067664;28;20600;-80
2022/03/16 11:26:54;;;;;;;;;;;12.30;99.90;;;;;;5066624;28;20044;-80
2022/03/16 11:29:28;;;;;;;14.77;10.82;;;12.30;99.90;;;;;;5066033;28;19924;-80
2022/03/16 11:32:14;;;;;;;14.35;11.07;;;12.40;99.90;;;;;;5066406;28;20044;-80
2022/03/16 11:34:54;;;;;;;12.73;10.07;;;12.50;99.90;;;;;;5050232;28;20088;-81
2022/03/16 11:37:36;;;;;;;17.33;10.40;;;12.60;99.90;;;;;;5065375;28;20043;-81
2022/03/16 11:40:10;;;;;;;11.50;8.82;;;12.80;99.90;;;;;;5058043;28;20131;-80
2022/03/16 11:42:38;;;;;;;12.25;9.32;;;12.90;99.90;;;;;;5049277;28;20396;-80
2022/03/16 11:45:36;;;;;;;12.05;8.82;;;13.00;99.90;;;;;;5065172;28;20476;-83
2022/03/16 11:48:34;;;;;;;11.80;8.38;;;13.10;99.90;;;;;;5041185;28;20153;-82
2022/03/16 11:51:09;;;;;;;16.77;9.77;;;13.20;98.80;;;;;;5057461;28;20040;-81
2022/03/16 11:53:46;;;;;;;;;;;13.90;99.00;;;;;;5071819;28;20150;-80
2022/03/16 11:56:21;;;;;;;13.95;8.90;;;13.30;98.70;;;;;;5062914;28;19924;-82
2022/03/16 11:58:48;;;;;;;10.38;8.55;;;13.50;98.90;;;;;;5069200;28;20379;-83
2022/03/16 12:01:31;;;;;;;11.50;9.23;;;13.50;99.60;;;;;;5071086;28;20037;-82
2022/03/16 12:04:16;;;;;;;16.65;10.82;;;13.70;98.60;;;;;;5069113;28;20512;-80
2022/03/16 12:07:05;;;;;;;14.82;8.60;;;13.80;98.60;;;;;;5052413;28;20157;-80
2022/03/16 12:09:47;;;;;;;13.32;9.93;;;13.90;97.50;;;;;;5073225;28;20123;-80
2022/03/16 12:15:10;;;;;;;12.45;8.63;;;14.50;97.90;;;;;;5063413;28;20814;-80
2022/03/16 12:17:40;;;;;;;13.80;9.18;;;14.10;96.70;;;;;;5070201;28;20044;-79
2022/03/16 12:20:15;;;;;;;12.32;9.27;;;14.20;97.20;;;;;;5061569;28;20032;-79
2022/03/16 12:22:48;;;;;;;11.27;9.43;;;14.30;95.60;;;;;;5069503;28;20048;-80
2022/03/16 12:25:26;;;;;;;16.25;9.50;;;14.30;96.50;;;;;;5054047;28;20040;-80
2022/03/16 12:31:01;;;;;;;14.82;10.43;;;14.50;96.50;;;;;;5071084;28;20041;-80
2022/03/16 12:33:29;;;;;;;12.88;9.80;;;14.70;97.00;;;;;;5067483;28;20036;-80
2022/03/16 12:36:02;;;;;;;12.02;9.82;;;14.80;96.30;;;;;;5071173;28;20040;-84
2022/03/16 12:38:30;;;;;;;13.68;10.07;;;14.90;95.40;;;;;;5052849;28;20036;-79
2022/03/16 12:43:46;;;;;;;13.35;9.85;;;15.10;95.40;;;;;;5068932;28;20056;-79
2022/03/16 12:46:40;;;;;;;10.85;9.07;;;15.20;94.30;;;;;;5068922;28;20245;-81
2022/03/16 12:49:11;;;;;;;12.30;9.43;;;15.20;93.20;;;;;;5052312;28;20043;-79
2022/03/16 12:51:53;;;;;;;14.05;9.60;;;15.30;94.90;;;;;;5069764;28;20396;-79
2022/03/16 12:54:21;;;;;;;13.00;9.15;;;15.30;92.70;;;;;;5045598;28;20048;-84
2022/03/16 12:56:52;;;;;;;9.38;8.43;;;15.30;92.50;;;;;;5069393;28;20041;-79
2022/03/16 12:59:26;;;;;;;14.00;9.00;;;15.40;92.10;;;;;;5069328;28;20070;-80